createdAt,value
2018-04-24T00:01:11.971Z,1011.97
2018-04-24T00:02:11.942Z,1011.97
2018-04-24T00:04:04.832Z,1011.98
2018-04-24T00:05:04.807Z,1012.04
2018-04-24T00:06:58.275Z,1011.98
2018-04-24T00:07:57.667Z,1012.05
2018-04-24T00:09:50.603Z,1011.98
2018-04-24T00:10:50.539Z,1012.00
2018-04-24T00:12:43.931Z,1011.97
2018-04-24T00:13:43.897Z,1011.98
2018-04-24T00:15:37.278Z,1011.92
2018-04-24T00:16:37.252Z,1011.93
2018-04-24T00:18:30.146Z,1011.92
2018-04-24T00:19:30.117Z,1011.89
2018-04-24T00:21:23.014Z,1011.87
2018-04-24T00:22:22.985Z,1011.87
2018-04-24T00:24:15.882Z,1011.90
2018-04-24T00:25:15.852Z,1011.92
2018-04-24T00:27:08.748Z,1011.90
2018-04-24T00:28:08.719Z,1011.92
2018-04-24T00:30:01.616Z,1011.88
2018-04-24T00:31:01.585Z,1011.87
2018-04-24T00:32:54.482Z,1011.90
2018-04-24T00:33:54.454Z,1011.92
2018-04-24T00:35:47.348Z,1011.92
2018-04-24T00:36:47.323Z,1011.90
2018-04-24T00:38:40.224Z,1011.86
2018-04-24T00:39:40.187Z,1011.90
2018-04-24T00:41:33.655Z,1011.91
2018-04-24T00:42:33.050Z,1011.89
2018-04-24T00:44:25.953Z,1011.93
2018-04-24T00:45:25.916Z,1011.94
2018-04-24T00:47:18.816Z,1011.91
2018-04-24T00:48:18.787Z,1011.92
2018-04-24T00:50:12.183Z,1011.88
2018-04-24T00:51:12.154Z,1011.89
2018-04-24T00:53:05.048Z,1011.92
2018-04-24T00:54:05.020Z,1011.91
2018-04-24T00:55:57.915Z,1011.94
2018-04-24T00:56:57.885Z,1011.96
2018-04-24T00:58:50.781Z,1012.00
2018-04-24T00:59:50.748Z,1011.99
2018-04-24T01:01:44.137Z,1011.90
2018-04-24T01:02:44.114Z,1011.87
2018-04-24T01:04:37.005Z,1011.85
2018-04-24T01:05:36.976Z,1011.82
2018-04-24T01:07:29.871Z,1011.78
2018-04-24T01:08:29.843Z,1011.77
2018-04-24T01:10:22.744Z,1011.71
2018-04-24T01:11:22.706Z,1011.71
2018-04-24T01:13:16.094Z,1011.70
2018-04-24T01:14:16.065Z,1011.67
2018-04-24T01:16:08.963Z,1011.65
2018-04-24T01:17:08.939Z,1011.63
2018-04-24T01:19:01.830Z,1011.66
2018-04-24T01:20:01.798Z,1011.64
2018-04-24T01:21:54.705Z,1011.67
2018-04-24T01:22:54.677Z,1011.62
2018-04-24T01:24:47.570Z,1011.58
2018-04-24T01:25:47.543Z,1011.58
2018-04-24T01:27:40.434Z,1011.52
2018-04-24T01:28:40.401Z,1011.56
2018-04-24T01:30:33.299Z,1011.54
2018-04-24T01:31:33.274Z,1011.59
2018-04-24T01:33:26.655Z,1011.55
2018-04-24T01:34:26.625Z,1011.51
2018-04-24T01:36:19.520Z,1011.49
2018-04-24T01:37:19.485Z,1011.49
2018-04-24T01:39:12.383Z,1011.50
2018-04-24T01:40:12.351Z,1011.52
2018-04-24T01:42:05.247Z,1011.54
2018-04-24T01:43:05.219Z,1011.60
2018-04-24T01:44:58.120Z,1011.63
2018-04-24T01:45:58.095Z,1011.59
2018-04-24T01:47:50.983Z,1011.62
2018-04-24T01:48:50.951Z,1011.61
2018-04-24T01:50:43.846Z,1011.58
2018-04-24T01:51:43.815Z,1011.48
2018-04-24T01:53:36.729Z,1011.49
2018-04-24T01:54:36.695Z,1011.52
2018-04-24T01:56:30.085Z,1011.60
2018-04-24T01:57:30.051Z,1011.58
2018-04-24T01:59:22.947Z,1011.63
2018-04-24T02:00:22.917Z,1011.66
2018-04-24T02:02:15.817Z,1011.65
2018-04-24T02:03:15.795Z,1011.64
2018-04-24T02:05:08.690Z,1011.61
2018-04-24T02:06:08.663Z,1011.64
2018-04-24T02:08:01.557Z,1011.64
2018-04-24T02:09:01.522Z,1011.65
2018-04-24T02:10:54.424Z,1011.66
2018-04-24T02:11:54.391Z,1011.69
2018-04-24T02:13:47.288Z,1011.68
2018-04-24T02:14:47.257Z,1011.61
2018-04-24T02:16:40.153Z,1011.65
2018-04-24T02:17:40.124Z,1011.68
2018-04-24T02:19:33.019Z,1011.66
2018-04-24T02:20:32.994Z,1011.68
2018-04-24T02:22:25.887Z,1011.62
2018-04-24T02:23:25.856Z,1011.57
2018-04-24T02:25:18.752Z,1011.52
2018-04-24T02:26:18.720Z,1011.52
2018-04-24T02:28:11.616Z,1011.50
2018-04-24T02:29:11.586Z,1011.48
2018-04-24T02:31:04.481Z,1011.48
2018-04-24T02:32:04.453Z,1011.45
2018-04-24T02:33:57.351Z,1011.47
2018-04-24T02:34:57.323Z,1011.47
2018-04-24T02:36:50.268Z,1011.45
2018-04-24T02:37:50.185Z,1011.45
2018-04-24T02:39:43.082Z,1011.39
2018-04-24T02:40:43.050Z,1011.40
2018-04-24T02:42:36.516Z,1011.38
2018-04-24T02:43:35.915Z,1011.43
2018-04-24T02:45:28.813Z,1011.41
2018-04-24T02:46:28.781Z,1011.47
2018-04-24T02:48:21.685Z,1011.41
2018-04-24T02:49:21.659Z,1011.44
2018-04-24T02:51:14.545Z,1011.43
2018-04-24T02:52:14.515Z,1011.44
2018-04-24T02:54:07.412Z,1011.52
2018-04-24T02:55:07.384Z,1011.47
2018-04-24T02:57:00.277Z,1011.44
2018-04-24T02:58:00.247Z,1011.42
2018-04-24T02:59:53.143Z,1011.38
2018-04-24T03:00:53.114Z,1011.35
2018-04-24T03:02:46.495Z,1011.30
2018-04-24T03:03:46.469Z,1011.23
2018-04-24T03:05:39.377Z,1011.30
2018-04-24T03:06:39.350Z,1011.34
2018-04-24T03:08:32.286Z,1011.39
2018-04-24T03:09:32.261Z,1011.42
2018-04-24T03:11:25.159Z,1011.36
2018-04-24T03:12:25.126Z,1011.32
2018-04-24T03:14:18.028Z,1011.34
2018-04-24T03:15:17.994Z,1011.32
2018-04-24T03:17:11.377Z,1011.28
2018-04-24T03:18:11.345Z,1011.30
2018-04-24T03:20:04.731Z,1011.17
2018-04-24T03:21:04.701Z,1011.17
2018-04-24T03:22:57.599Z,1011.12
2018-04-24T03:23:57.567Z,1011.13
2018-04-24T03:25:50.962Z,1011.07
2018-04-24T03:26:50.923Z,1011.05
2018-04-24T03:28:43.829Z,1011.05
2018-04-24T03:29:43.786Z,1011.05
2018-04-24T03:31:36.669Z,1011.10
2018-04-24T03:32:36.647Z,1011.14
2018-04-24T03:34:29.544Z,1011.10
2018-04-24T03:35:29.509Z,1011.11
2018-04-24T03:37:22.896Z,1011.09
2018-04-24T03:38:22.867Z,1011.10
2018-04-24T03:40:15.785Z,1011.08
2018-04-24T03:41:15.757Z,1011.09
2018-04-24T03:43:09.219Z,1011.13
2018-04-24T03:44:08.620Z,1011.12
2018-04-24T03:46:01.512Z,1011.13
2018-04-24T03:47:01.483Z,1011.11
2018-04-24T03:48:54.380Z,1011.09
2018-04-24T03:49:54.349Z,1011.12
2018-04-24T03:51:47.242Z,1011.10
2018-04-24T03:52:47.211Z,1011.13
2018-04-24T03:54:40.105Z,1011.15
2018-04-24T03:55:40.075Z,1011.11
2018-04-24T03:57:32.975Z,1011.06
2018-04-24T03:58:32.936Z,1011.06
2018-04-24T04:00:25.905Z,1011.09
2018-04-24T04:01:25.804Z,1011.01
2018-04-24T04:03:18.742Z,1011.09
2018-04-24T04:04:18.709Z,1011.03
2018-04-24T04:06:11.606Z,1011.05
2018-04-24T04:07:11.577Z,1011.05
2018-04-24T04:09:04.966Z,1011.08
2018-04-24T04:10:04.938Z,1011.05
2018-04-24T04:11:57.832Z,1011.06
2018-04-24T04:12:57.801Z,1011.02
2018-04-24T04:14:50.772Z,1011.07
2018-04-24T04:17:03.561Z,1011.12
2018-04-24T04:18:03.539Z,1011.11
2018-04-24T04:19:56.428Z,1011.06
2018-04-24T04:20:56.405Z,1011.02
2018-04-24T04:22:49.786Z,1011.04
2018-04-24T04:23:49.758Z,1011.07
2018-04-24T04:25:42.649Z,1011.06
2018-04-24T04:26:42.629Z,1011.08
2018-04-24T04:28:35.517Z,1011.10
2018-04-24T04:29:35.484Z,1011.14
2018-04-24T04:31:28.373Z,1011.17
2018-04-24T04:32:28.356Z,1011.21
2018-04-24T04:34:21.245Z,1011.24
2018-04-24T04:35:21.220Z,1011.23
2018-04-24T04:37:14.110Z,1011.27
2018-04-24T04:38:14.079Z,1011.27
2018-04-24T04:40:06.965Z,1011.28
2018-04-24T04:41:06.944Z,1011.32
2018-04-24T04:43:00.044Z,1011.35
2018-04-24T04:44:00.373Z,1011.34
2018-04-24T04:45:52.785Z,1011.40
2018-04-24T04:46:52.737Z,1011.37
2018-04-24T04:48:45.694Z,1011.37
2018-04-24T04:49:45.596Z,1011.35
2018-04-24T04:51:38.501Z,1011.34
2018-04-24T04:52:38.463Z,1011.40
2018-04-24T04:54:31.382Z,1011.39
2018-04-24T04:55:31.327Z,1011.36
2018-04-24T04:57:24.225Z,1011.36
2018-04-24T04:58:24.194Z,1011.41
2018-04-24T05:00:17.158Z,1011.38
2018-04-24T05:01:17.121Z,1011.39
2018-04-24T05:03:10.109Z,1011.40
2018-04-24T05:04:10.071Z,1011.44
2018-04-24T05:06:03.022Z,1011.41
2018-04-24T05:07:02.987Z,1011.35
2018-04-24T05:08:56.062Z,1011.35
2018-04-24T05:09:56.038Z,1011.35
2018-04-24T05:11:49.003Z,1011.30
2018-04-24T05:12:48.973Z,1011.28
2018-04-24T05:14:42.032Z,1011.27
2018-04-24T05:15:42.007Z,1011.33
2018-04-24T05:17:35.093Z,1011.32
2018-04-24T05:18:35.070Z,1011.33
2018-04-24T05:20:28.079Z,1011.38
2018-04-24T05:21:28.032Z,1011.39
2018-04-24T05:23:21.056Z,1011.39
2018-04-24T05:24:21.002Z,1011.40
2018-04-24T05:26:13.900Z,1011.49
2018-04-24T05:27:13.864Z,1011.46
2018-04-24T05:29:07.344Z,1011.46
2018-04-24T05:30:07.299Z,1011.48
2018-04-24T05:32:00.240Z,1011.48
2018-04-24T05:33:00.215Z,1011.54
2018-04-24T05:34:53.114Z,1011.53
2018-04-24T05:35:53.083Z,1011.58
2018-04-24T05:37:45.973Z,1011.59
2018-04-24T05:38:45.948Z,1011.68
2018-04-24T05:40:39.342Z,1011.66
2018-04-24T05:41:39.320Z,1011.66
2018-04-24T05:43:32.208Z,1011.68
2018-04-24T05:44:32.193Z,1011.69
2018-04-24T05:46:25.085Z,1011.69
2018-04-24T05:47:25.052Z,1011.71
2018-04-24T05:49:17.941Z,1011.73
2018-04-24T05:50:17.925Z,1011.76
2018-04-24T05:52:11.313Z,1011.76
2018-04-24T05:53:11.283Z,1011.74
2018-04-24T05:55:04.174Z,1011.82
2018-04-24T05:56:04.164Z,1011.83
2018-04-24T05:57:57.111Z,1011.82
2018-04-24T05:58:57.020Z,1011.88
2018-04-24T06:00:49.983Z,1011.91
2018-04-24T06:01:49.889Z,1011.94
2018-04-24T06:03:42.795Z,1011.96
2018-04-24T06:04:42.758Z,1012.01
2018-04-24T06:06:35.657Z,1012.01
2018-04-24T06:07:35.627Z,1012.02
2018-04-24T06:09:28.525Z,1012.02
2018-04-24T06:10:28.504Z,1012.06
2018-04-24T06:12:21.877Z,1012.02
2018-04-24T06:13:21.866Z,1011.98
2018-04-24T06:15:14.757Z,1012.01
2018-04-24T06:16:14.736Z,1012.00
2018-04-24T06:18:08.120Z,1011.99
2018-04-24T06:19:08.099Z,1012.00
2018-04-24T06:21:01.000Z,1012.02
2018-04-24T06:22:00.965Z,1011.99
2018-04-24T06:23:53.874Z,1012.02
2018-04-24T06:24:53.857Z,1012.01
2018-04-24T06:26:46.747Z,1012.01
2018-04-24T06:27:46.729Z,1012.00
2018-04-24T06:29:39.613Z,1012.04
2018-04-24T06:30:39.597Z,1012.01
2018-04-24T06:32:32.500Z,1012.05
2018-04-24T06:33:32.464Z,1012.06
2018-04-24T06:35:25.351Z,1012.02
2018-04-24T06:36:25.334Z,1011.98
2018-04-24T06:38:18.260Z,1012.01
2018-04-24T06:39:18.207Z,1012.02
2018-04-24T06:41:11.124Z,1012.00
2018-04-24T06:42:11.090Z,1011.99
2018-04-24T06:44:03.985Z,1011.97
2018-04-24T06:45:03.957Z,1011.95
2018-04-24T06:46:56.946Z,1011.99
2018-04-24T06:47:56.829Z,1011.96
2018-04-24T06:49:49.725Z,1011.95
2018-04-24T06:50:49.700Z,1011.96
2018-04-24T06:52:42.601Z,1011.97
2018-04-24T06:53:42.574Z,1011.96
2018-04-24T06:55:35.476Z,1011.98
2018-04-24T06:56:35.454Z,1012.00
2018-04-24T06:58:28.853Z,1011.99
2018-04-24T06:59:28.822Z,1011.98
2018-04-24T07:01:22.238Z,1012.03
2018-04-24T07:02:22.193Z,1012.02
2018-04-24T07:04:15.114Z,1012.00
2018-04-24T07:05:15.067Z,1012.00
2018-04-24T07:07:08.489Z,1011.99
2018-04-24T07:08:08.442Z,1011.98
2018-04-24T07:10:01.837Z,1011.97
2018-04-24T07:11:01.808Z,1012.00
2018-04-24T07:12:54.708Z,1012.08
2018-04-24T07:13:54.689Z,1012.09
2018-04-24T07:15:47.584Z,1012.04
2018-04-24T07:16:47.604Z,1012.07
2018-04-24T07:18:40.465Z,1012.08
2018-04-24T07:19:40.437Z,1012.08
2018-04-24T07:21:33.347Z,1012.06
2018-04-24T07:22:33.314Z,1012.05
2018-04-24T07:24:26.245Z,1012.06
2018-04-24T07:25:26.201Z,1011.99
2018-04-24T07:27:19.117Z,1012.02
2018-04-24T07:28:19.120Z,1011.99
2018-04-24T07:30:11.987Z,1011.99
2018-04-24T07:31:11.960Z,1012.00
2018-04-24T07:33:04.897Z,1011.96
2018-04-24T07:34:04.854Z,1011.96
2018-04-24T07:35:57.743Z,1011.94
2018-04-24T07:36:57.749Z,1011.89
2018-04-24T07:38:51.139Z,1011.89
2018-04-24T07:39:51.099Z,1011.89
2018-04-24T07:41:44.002Z,1011.86
2018-04-24T07:42:43.993Z,1011.89
2018-04-24T07:44:36.886Z,1011.87
2018-04-24T07:45:36.870Z,1011.89
2018-04-24T07:47:29.787Z,1011.89
2018-04-24T07:48:29.746Z,1011.88
2018-04-24T07:50:23.134Z,1011.89
2018-04-24T07:51:23.117Z,1011.95
2018-04-24T07:53:16.585Z,1011.93
2018-04-24T07:54:16.000Z,1011.92
2018-04-24T07:56:08.920Z,1011.99
2018-04-24T07:57:08.881Z,1011.93
2018-04-24T07:59:02.278Z,1011.94
2018-04-24T08:00:02.273Z,1011.98
2018-04-24T08:01:55.652Z,1011.95
2018-04-24T08:02:55.626Z,1011.94
2018-04-24T08:04:48.529Z,1011.94
2018-04-24T08:05:48.510Z,1011.93
2018-04-24T08:07:41.417Z,1011.92
2018-04-24T08:08:41.396Z,1011.93
2018-04-24T08:10:34.305Z,1011.92
2018-04-24T08:11:34.275Z,1011.90
2018-04-24T08:13:27.672Z,1011.90
2018-04-24T08:14:27.656Z,1011.90
2018-04-24T08:16:20.565Z,1011.92
2018-04-24T08:17:20.534Z,1011.90
2018-04-24T08:19:13.477Z,1011.87
2018-04-24T08:20:13.413Z,1011.92
2018-04-24T08:22:06.342Z,1011.93
2018-04-24T08:23:06.297Z,1011.96
2018-04-24T08:24:59.696Z,1011.99
2018-04-24T08:25:59.679Z,1011.97
2018-04-24T08:27:52.585Z,1011.96
2018-04-24T08:28:52.561Z,1011.96
2018-04-24T08:30:45.474Z,1011.96
2018-04-24T08:31:45.450Z,1011.92
2018-04-24T08:33:38.928Z,1011.93
2018-04-24T08:34:38.822Z,1011.94
2018-04-24T08:36:31.774Z,1011.97
2018-04-24T08:37:31.702Z,1011.96
2018-04-24T08:39:24.623Z,1011.93
2018-04-24T08:40:24.592Z,1011.93
2018-04-24T08:42:18.012Z,1011.83
2018-04-24T08:43:17.971Z,1011.84
2018-04-24T08:45:10.896Z,1011.88
2018-04-24T08:46:10.864Z,1011.86
2018-04-24T08:48:03.814Z,1011.85
2018-04-24T08:49:03.749Z,1011.88
2018-04-24T08:50:56.653Z,1011.90
2018-04-24T08:51:56.628Z,1011.84
2018-04-24T08:53:49.534Z,1011.83
2018-04-24T08:54:49.513Z,1011.79
2018-04-24T08:56:42.421Z,1011.77
2018-04-24T08:57:42.403Z,1011.79
2018-04-24T08:59:35.308Z,1011.85
2018-04-24T09:00:35.293Z,1011.85
2018-04-24T09:02:28.724Z,1011.84
2018-04-24T09:03:28.672Z,1011.83
2018-04-24T09:05:22.059Z,1011.81
2018-04-24T09:06:22.048Z,1011.81
2018-04-24T09:08:15.453Z,1011.77
2018-04-24T09:09:15.421Z,1011.79
2018-04-24T09:11:08.331Z,1011.81
2018-04-24T09:12:08.305Z,1011.81
2018-04-24T09:14:01.221Z,1011.77
2018-04-24T09:15:01.192Z,1011.77
2018-04-24T09:16:54.649Z,1011.79
2018-04-24T09:17:54.594Z,1011.79
2018-04-24T09:19:47.519Z,1011.84
2018-04-24T09:20:47.479Z,1011.88
2018-04-24T09:22:40.375Z,1011.92
2018-04-24T09:23:40.352Z,1011.89
2018-04-24T09:25:33.262Z,1011.89
2018-04-24T09:26:33.238Z,1011.89
2018-04-24T09:28:26.192Z,1011.91
2018-04-24T09:29:26.121Z,1011.89
2018-04-24T09:31:19.036Z,1011.91
2018-04-24T09:32:18.999Z,1011.92
2018-04-24T09:34:12.417Z,1011.89
2018-04-24T09:35:12.371Z,1011.84
2018-04-24T09:37:05.766Z,1011.83
2018-04-24T09:38:05.750Z,1011.83
2018-04-24T09:39:58.662Z,1011.84
2018-04-24T09:40:58.627Z,1011.82
2018-04-24T09:42:52.029Z,1011.83
2018-04-24T09:43:52.078Z,1011.82
2018-04-24T09:45:44.902Z,1011.84
2018-04-24T09:46:44.882Z,1011.89
2018-04-24T09:48:37.783Z,1011.89
2018-04-24T09:49:37.767Z,1011.93
2018-04-24T09:51:30.729Z,1011.99
2018-04-24T09:52:30.640Z,1011.97
2018-04-24T09:54:24.048Z,1012.00
2018-04-24T09:55:24.012Z,1011.96
2018-04-24T09:57:17.447Z,1011.97
2018-04-24T09:58:17.386Z,1011.97
2018-04-24T10:00:10.308Z,1011.97
2018-04-24T10:01:10.270Z,1011.96
2018-04-24T10:03:03.674Z,1011.93
2018-04-24T10:04:03.645Z,1011.96
2018-04-24T10:05:56.548Z,1011.98
2018-04-24T10:06:56.528Z,1011.97
2018-04-24T10:08:49.437Z,1011.92
2018-04-24T10:09:49.409Z,1011.94
2018-04-24T10:11:42.847Z,1011.87
2018-04-24T10:12:42.798Z,1011.87
2018-04-24T10:14:35.708Z,1011.81
2018-04-24T10:15:35.675Z,1011.83
2018-04-24T10:17:28.577Z,1011.80
2018-04-24T10:18:28.557Z,1011.73
2018-04-24T10:20:21.460Z,1011.81
2018-04-24T10:21:21.437Z,1011.85
2018-04-24T10:23:14.355Z,1011.81
2018-04-24T10:24:14.318Z,1011.77
2018-04-24T10:26:07.235Z,1011.73
2018-04-24T10:27:07.197Z,1011.71
2018-04-24T10:29:00.619Z,1011.66
2018-04-24T10:30:00.576Z,1011.66
2018-04-24T10:31:53.490Z,1011.71
2018-04-24T10:32:53.454Z,1011.65
2018-04-24T10:34:46.356Z,1011.67
2018-04-24T10:35:46.339Z,1011.64
2018-04-24T10:37:39.242Z,1011.64
2018-04-24T10:38:39.216Z,1011.66
2018-04-24T10:40:32.120Z,1011.69
2018-04-24T10:41:32.106Z,1011.63
2018-04-24T10:43:25.034Z,1011.65
2018-04-24T10:44:24.996Z,1011.62
2018-04-24T10:46:17.904Z,1011.64
2018-04-24T10:47:17.873Z,1011.59
2018-04-24T10:49:11.295Z,1011.51
2018-04-24T10:50:11.262Z,1011.48
2018-04-24T10:52:04.726Z,1011.50
2018-04-24T10:53:04.137Z,1011.49
2018-04-24T10:54:57.609Z,1011.48
2018-04-24T10:55:57.583Z,1011.47
2018-04-24T10:57:50.467Z,1011.41
2018-04-24T10:58:50.416Z,1011.44
2018-04-24T11:00:43.370Z,1011.47
2018-04-24T11:01:43.304Z,1011.48
2018-04-24T11:03:36.253Z,1011.50
2018-04-24T11:04:36.188Z,1011.48
2018-04-24T11:06:29.104Z,1011.45
2018-04-24T11:07:29.067Z,1011.47
2018-04-24T11:09:22.028Z,1011.36
2018-04-24T11:10:21.960Z,1011.35
2018-04-24T11:12:14.863Z,1011.37
2018-04-24T11:13:14.840Z,1011.36
2018-04-24T11:15:07.764Z,1011.40
2018-04-24T11:16:07.728Z,1011.37
2018-04-24T11:18:00.692Z,1011.33
2018-04-24T11:19:00.612Z,1011.28
2018-04-24T11:20:54.015Z,1011.25
2018-04-24T11:21:53.993Z,1011.22
2018-04-24T11:23:46.896Z,1011.17
2018-04-24T11:24:46.872Z,1011.20
2018-04-24T11:26:39.836Z,1011.14
2018-04-24T11:27:39.757Z,1011.18
2018-04-24T11:29:32.707Z,1011.12
2018-04-24T11:30:32.650Z,1011.13
2018-04-24T11:32:25.601Z,1011.09
2018-04-24T11:33:25.541Z,1011.05
2018-04-24T11:35:18.937Z,1011.06
2018-04-24T11:36:18.912Z,1011.01
2018-04-24T11:38:11.884Z,1010.92
2018-04-24T11:39:11.799Z,1010.87
2018-04-24T11:41:04.750Z,1010.90
2018-04-24T11:42:04.684Z,1010.90
2018-04-24T11:43:57.730Z,1010.87
2018-04-24T11:44:57.672Z,1010.86
2018-04-24T11:46:51.120Z,1010.85
2018-04-24T11:47:51.051Z,1010.83
2018-04-24T11:49:43.964Z,1010.84
2018-04-24T11:50:43.943Z,1010.76
2018-04-24T11:52:37.340Z,1010.74
2018-04-24T11:53:37.324Z,1010.73
2018-04-24T11:55:30.229Z,1010.74
2018-04-24T11:56:30.211Z,1010.75
2018-04-24T11:58:23.115Z,1010.72
2018-04-24T11:59:23.097Z,1010.76
2018-04-24T12:01:16.543Z,1010.72
2018-04-24T12:02:16.470Z,1010.67
2018-04-24T12:04:09.397Z,1010.62
2018-04-24T12:05:09.366Z,1010.63
2018-04-24T12:07:02.269Z,1010.58
2018-04-24T12:08:02.253Z,1010.56
2018-04-24T12:09:55.161Z,1010.54
2018-04-24T12:10:55.140Z,1010.52
2018-04-24T12:12:48.124Z,1010.49
2018-04-24T12:13:48.031Z,1010.54
2018-04-24T12:15:40.994Z,1010.49
2018-04-24T12:16:40.923Z,1010.47
2018-04-24T12:18:33.826Z,1010.44
2018-04-24T12:19:33.821Z,1010.42
2018-04-24T12:21:26.728Z,1010.40
2018-04-24T12:22:26.697Z,1010.39
2018-04-24T12:24:19.631Z,1010.38
2018-04-24T12:25:19.580Z,1010.39
2018-04-24T12:27:12.486Z,1010.40
2018-04-24T12:28:12.474Z,1010.38
2018-04-24T12:30:05.914Z,1010.39
2018-04-24T12:31:05.868Z,1010.40
2018-04-24T12:32:58.794Z,1010.40
2018-04-24T12:33:58.755Z,1010.38
2018-04-24T12:35:52.730Z,1010.34
2018-04-24T12:36:52.133Z,1010.37
2018-04-24T12:38:45.143Z,1010.33
2018-04-24T12:39:45.026Z,1010.36
2018-04-24T12:41:37.929Z,1010.32
2018-04-24T12:42:37.919Z,1010.29
2018-04-24T12:44:30.874Z,1010.30
2018-04-24T12:45:30.806Z,1010.34
2018-04-24T12:47:24.268Z,1010.32
2018-04-24T12:48:24.189Z,1010.28
2018-04-24T12:50:17.595Z,1010.28
2018-04-24T12:51:17.565Z,1010.24
2018-04-24T12:53:10.476Z,1010.19
2018-04-24T12:54:10.452Z,1010.18
2018-04-24T12:56:03.415Z,1010.18
2018-04-24T12:57:03.336Z,1010.13
2018-04-24T12:58:56.246Z,1010.05
2018-04-24T12:59:56.228Z,1009.99
2018-04-24T13:01:49.148Z,1010.03
2018-04-24T13:02:49.128Z,1010.05
2018-04-24T13:04:42.644Z,1010.06
2018-04-24T13:05:42.013Z,1010.05
2018-04-24T13:07:34.917Z,1009.98
2018-04-24T13:08:34.898Z,1009.95
2018-04-24T13:10:27.886Z,1009.98
2018-04-24T13:11:27.785Z,1009.98
2018-04-24T13:13:20.688Z,1009.95
2018-04-24T13:14:20.672Z,1009.91
2018-04-24T13:16:13.577Z,1009.90
2018-04-24T13:17:13.564Z,1009.83
2018-04-24T13:19:07.030Z,1009.78
2018-04-24T13:20:06.949Z,1009.76
2018-04-24T13:21:59.931Z,1009.76
2018-04-24T13:22:59.909Z,1009.82
2018-04-24T13:24:52.772Z,1009.85
2018-04-24T13:25:52.788Z,1009.83
2018-04-24T13:27:46.129Z,1009.83
2018-04-24T13:28:46.110Z,1009.81
2018-04-24T13:30:39.027Z,1009.84
2018-04-24T13:31:39.005Z,1009.82
2018-04-24T13:33:31.958Z,1009.78
2018-04-24T13:34:31.888Z,1009.73
2018-04-24T13:36:24.785Z,1009.77
2018-04-24T13:37:24.768Z,1009.78
2018-04-24T13:39:18.167Z,1009.78
2018-04-24T13:40:18.149Z,1009.79
2018-04-24T13:42:11.138Z,1009.76
2018-04-24T13:43:11.049Z,1009.74
2018-04-24T13:45:03.938Z,1009.73
2018-04-24T13:46:03.919Z,1009.74
2018-04-24T13:47:56.820Z,1009.69
2018-04-24T13:48:56.836Z,1009.74
2018-04-24T13:50:50.205Z,1009.75
2018-04-24T13:51:50.186Z,1009.73
2018-04-24T13:53:43.105Z,1009.74
2018-04-24T13:54:43.064Z,1009.69
2018-04-24T13:56:36.497Z,1009.67
2018-04-24T13:57:36.444Z,1009.65
2018-04-24T13:59:29.347Z,1009.68
2018-04-24T14:00:29.328Z,1009.66
2018-04-24T14:02:22.740Z,1009.65
2018-04-24T14:03:22.705Z,1009.64
2018-04-24T14:05:16.134Z,1009.62
2018-04-24T14:06:16.091Z,1009.67
2018-04-24T14:08:09.032Z,1009.58
2018-04-24T14:09:08.973Z,1009.54
2018-04-24T14:11:01.935Z,1009.50
2018-04-24T14:12:01.850Z,1009.52
2018-04-24T14:13:54.799Z,1009.54
2018-04-24T14:14:54.741Z,1009.50
2018-04-24T14:16:47.680Z,1009.53
2018-04-24T14:17:47.633Z,1009.51
2018-04-24T14:19:40.531Z,1009.50
2018-04-24T14:20:40.514Z,1009.48
2018-04-24T14:22:33.484Z,1009.46
2018-04-24T14:23:33.396Z,1009.45
2018-04-24T14:25:26.353Z,1009.48
2018-04-24T14:26:26.283Z,1009.49
2018-04-24T14:28:19.208Z,1009.46
2018-04-24T14:29:19.192Z,1009.44
2018-04-24T14:31:12.083Z,1009.44
2018-04-24T14:32:12.060Z,1009.41
2018-04-24T14:34:04.964Z,1009.41
2018-04-24T14:35:04.953Z,1009.41
2018-04-24T14:36:57.903Z,1009.41
2018-04-24T14:37:57.827Z,1009.36
2018-04-24T14:39:51.805Z,1009.36
2018-04-24T14:40:51.207Z,1009.40
2018-04-24T14:42:44.147Z,1009.38
2018-04-24T14:43:44.108Z,1009.30
2018-04-24T14:45:37.528Z,1009.25
2018-04-24T14:46:37.469Z,1009.28
2018-04-24T14:48:30.865Z,1009.20
2018-04-24T14:49:30.844Z,1009.23
2018-04-24T14:51:23.779Z,1009.20
2018-04-24T14:52:23.727Z,1009.20
2018-04-24T14:54:17.203Z,1009.17
2018-04-24T14:55:17.163Z,1009.24
2018-04-24T14:57:10.558Z,1009.17
2018-04-24T14:58:10.537Z,1009.25
2018-04-24T15:00:03.443Z,1009.22
2018-04-24T15:01:03.418Z,1009.24
2018-04-24T15:02:56.815Z,1009.23
2018-04-24T15:03:56.797Z,1009.21
2018-04-24T15:05:49.698Z,1009.15
2018-04-24T15:06:49.679Z,1009.14
2018-04-24T15:08:43.096Z,1009.11
2018-04-24T15:09:43.060Z,1009.09
2018-04-24T15:11:35.969Z,1009.11
2018-04-24T15:12:35.943Z,1009.04
2018-04-24T15:14:28.941Z,1009.06
2018-04-24T15:15:28.924Z,1009.08
2018-04-24T15:17:22.314Z,1009.12
2018-04-24T15:18:22.373Z,1009.09
2018-04-24T15:20:15.203Z,1009.08
2018-04-24T15:21:15.177Z,1009.07
2018-04-24T15:23:08.088Z,1009.09
2018-04-24T15:24:08.059Z,1009.06
2018-04-24T15:26:01.456Z,1009.05
2018-04-24T15:27:01.439Z,1009.01
2018-04-24T15:28:54.835Z,1009.01
2018-04-24T15:29:54.812Z,1008.98
2018-04-24T15:31:47.716Z,1008.97
2018-04-24T15:32:47.692Z,1008.86
2018-04-24T15:34:40.597Z,1008.91
2018-04-24T15:35:40.573Z,1008.89
2018-04-24T15:37:33.474Z,1008.87
2018-04-24T15:38:33.454Z,1008.85
2018-04-24T15:40:26.435Z,1008.88
2018-04-24T15:41:26.334Z,1008.88
2018-04-24T15:43:19.249Z,1008.83
2018-04-24T15:44:19.230Z,1008.86
2018-04-24T15:46:12.620Z,1008.85
2018-04-24T15:47:12.604Z,1008.79
2018-04-24T15:49:05.504Z,1008.75
2018-04-24T15:50:05.486Z,1008.72
2018-04-24T15:51:58.383Z,1008.67
2018-04-24T15:52:58.357Z,1008.61
2018-04-24T15:54:51.313Z,1008.68
2018-04-24T15:55:51.241Z,1008.65
2018-04-24T15:57:44.642Z,1008.61
2018-04-24T15:58:44.611Z,1008.60
2018-04-24T16:00:38.584Z,1008.60
2018-04-24T16:01:37.988Z,1008.57
2018-04-24T16:03:30.885Z,1008.58
2018-04-24T16:04:30.870Z,1008.52
2018-04-24T16:06:24.257Z,1008.47
2018-04-24T16:07:24.239Z,1008.52
2018-04-24T16:09:17.137Z,1008.53
2018-04-24T16:10:17.112Z,1008.51
2018-04-24T16:12:10.042Z,1008.45
2018-04-24T16:13:09.998Z,1008.45
2018-04-24T16:15:02.889Z,1008.40
2018-04-24T16:16:02.879Z,1008.43
2018-04-24T16:17:55.778Z,1008.41
2018-04-24T16:18:55.759Z,1008.39
2018-04-24T16:20:48.667Z,1008.39
2018-04-24T16:21:48.647Z,1008.36
2018-04-24T16:23:41.545Z,1008.33
2018-04-24T16:24:41.523Z,1008.32
2018-04-24T16:26:34.422Z,1008.29
2018-04-24T16:27:34.393Z,1008.26
2018-04-24T16:29:27.297Z,1008.27
2018-04-24T16:30:27.270Z,1008.25
2018-04-24T16:32:20.175Z,1008.24
2018-04-24T16:33:20.153Z,1008.23
2018-04-24T16:35:13.546Z,1008.27
2018-04-24T16:36:13.522Z,1008.30
2018-04-24T16:38:06.426Z,1008.29
2018-04-24T16:39:06.395Z,1008.31
2018-04-24T16:40:59.317Z,1008.33
2018-04-24T16:41:59.276Z,1008.30
2018-04-24T16:43:52.677Z,1008.26
2018-04-24T16:44:52.658Z,1008.28
2018-04-24T16:46:45.557Z,1008.31
2018-04-24T16:47:45.534Z,1008.27
2018-04-24T16:49:38.437Z,1008.30
2018-04-24T16:50:38.413Z,1008.26
2018-04-24T16:52:31.323Z,1008.21
2018-04-24T16:53:31.299Z,1008.16
2018-04-24T16:55:24.198Z,1008.12
2018-04-24T16:56:24.174Z,1008.09
2018-04-24T16:58:17.569Z,1008.06
2018-04-24T16:59:17.550Z,1008.05
2018-04-24T17:01:10.448Z,1008.08
2018-04-24T17:02:10.423Z,1008.10
2018-04-24T17:04:03.404Z,1008.08
2018-04-24T17:05:03.303Z,1008.11
2018-04-24T17:06:56.697Z,1008.07
2018-04-24T17:07:56.673Z,1008.05
2018-04-24T17:09:49.576Z,1008.01
2018-04-24T17:10:49.552Z,1007.95
2018-04-24T17:12:42.452Z,1007.92
2018-04-24T17:13:42.424Z,1007.88
2018-04-24T17:15:35.820Z,1007.86
2018-04-24T17:16:35.798Z,1007.86
2018-04-24T17:18:28.699Z,1007.82
2018-04-24T17:19:28.677Z,1007.83
2018-04-24T17:21:21.575Z,1007.76
2018-04-24T17:22:21.555Z,1007.77
2018-04-24T17:24:14.470Z,1007.72
2018-04-24T17:25:14.450Z,1007.67
2018-04-24T17:27:07.373Z,1007.64